sensor_id;sensor_type;location;lat;lon;timestamp;P1;durP1;ratioP1;P2;durP2;ratioP2
66856;SDS011;53766;50.280;19.160;2023-04-24T00:00:26;8.18;;;4.32;;
66856;SDS011;53766;50.280;19.160;2023-04-24T00:03:14;6.30;;;4.88;;
66856;SDS011;53766;50.280;19.160;2023-04-24T00:05:42;6.78;;;4.38;;
66856;SDS011;53766;50.280;19.160;2023-04-24T00:08:10;7.80;;;4.28;;
66856;SDS011;53766;50.280;19.160;2023-04-24T00:10:37;7.78;;;4.80;;
66856;SDS011;53766;50.280;19.160;2023-04-24T00:13:04;8.02;;;4.70;;
66856;SDS011;53766;50.280;19.160;2023-04-24T00:15:32;8.10;;;4.72;;
66856;SDS011;53766;50.280;19.160;2023-04-24T00:18:00;9.15;;;4.75;;
66856;SDS011;53766;50.280;19.160;2023-04-24T00:20:28;8.00;;;4.57;;
66856;SDS011;53766;50.280;19.160;2023-04-24T00:23:02;8.40;;;4.60;;
66856;SDS011;53766;50.280;19.160;2023-04-24T00:25:30;9.18;;;4.82;;
66856;SDS011;53766;50.280;19.160;2023-04-24T00:27:57;6.88;;;4.68;;
66856;SDS011;53766;50.280;19.160;2023-04-24T00:30:25;7.60;;;4.82;;
66856;SDS011;53766;50.280;19.160;2023-04-24T00:32:52;9.05;;;4.90;;
66856;SDS011;53766;50.280;19.160;2023-04-24T00:35:20;9.23;;;5.25;;
66856;SDS011;53766;50.280;19.160;2023-04-24T00:37:47;7.60;;;5.07;;
66856;SDS011;53766;50.280;19.160;2023-04-24T00:40:14;7.20;;;4.57;;
66856;SDS011;53766;50.280;19.160;2023-04-24T00:42:43;7.22;;;5.25;;
66856;SDS011;53766;50.280;19.160;2023-04-24T00:45:11;9.30;;;5.00;;
66856;SDS011;53766;50.280;19.160;2023-04-24T00:47:39;9.07;;;5.28;;
66856;SDS011;53766;50.280;19.160;2023-04-24T00:50:07;8.15;;;5.03;;
66856;SDS011;53766;50.280;19.160;2023-04-24T00:52:35;10.05;;;5.43;;
66856;SDS011;53766;50.280;19.160;2023-04-24T00:55:03;8.35;;;5.30;;
66856;SDS011;53766;50.280;19.160;2023-04-24T00:57:30;9.68;;;5.20;;
66856;SDS011;53766;50.280;19.160;2023-04-24T00:59:58;7.22;;;5.03;;
66856;SDS011;53766;50.280;19.160;2023-04-24T01:02:25;8.00;;;5.60;;
66856;SDS011;53766;50.280;19.160;2023-04-24T01:04:53;7.20;;;5.00;;
66856;SDS011;53766;50.280;19.160;2023-04-24T01:07:21;9.90;;;5.72;;
66856;SDS011;53766;50.280;19.160;2023-04-24T01:09:49;7.50;;;4.72;;
66856;SDS011;53766;50.280;19.160;2023-04-24T01:12:19;8.90;;;5.30;;
66856;SDS011;53766;50.280;19.160;2023-04-24T01:14:46;8.60;;;5.50;;
66856;SDS011;53766;50.280;19.160;2023-04-24T01:17:14;7.82;;;5.00;;
66856;SDS011;53766;50.280;19.160;2023-04-24T01:19:42;8.07;;;5.15;;
66856;SDS011;53766;50.280;19.160;2023-04-24T01:22:15;7.43;;;5.13;;
66856;SDS011;53766;50.280;19.160;2023-04-24T01:24:43;9.20;;;5.07;;
66856;SDS011;53766;50.280;19.160;2023-04-24T01:27:11;8.10;;;5.05;;
66856;SDS011;53766;50.280;19.160;2023-04-24T01:29:39;8.00;;;4.97;;
66856;SDS011;53766;50.280;19.160;2023-04-24T01:32:07;8.80;;;5.57;;
66856;SDS011;53766;50.280;19.160;2023-04-24T01:34:34;9.13;;;5.55;;
66856;SDS011;53766;50.280;19.160;2023-04-24T01:37:02;7.72;;;5.05;;
66856;SDS011;53766;50.280;19.160;2023-04-24T01:39:29;9.60;;;5.65;;
66856;SDS011;53766;50.280;19.160;2023-04-24T01:41:57;7.60;;;5.15;;
66856;SDS011;53766;50.280;19.160;2023-04-24T01:44:24;8.73;;;5.15;;
66856;SDS011;53766;50.280;19.160;2023-04-24T01:46:53;9.23;;;5.40;;
66856;SDS011;53766;50.280;19.160;2023-04-24T01:49:21;8.10;;;5.28;;
66856;SDS011;53766;50.280;19.160;2023-04-24T01:51:49;8.15;;;5.45;;
66856;SDS011;53766;50.280;19.160;2023-04-24T01:54:16;7.45;;;5.22;;
66856;SDS011;53766;50.280;19.160;2023-04-24T01:56:44;10.43;;;5.28;;
66856;SDS011;53766;50.280;19.160;2023-04-24T01:59:12;10.15;;;5.57;;
66856;SDS011;53766;50.280;19.160;2023-04-24T02:01:40;8.18;;;4.72;;
66856;SDS011;53766;50.280;19.160;2023-04-24T02:04:07;7.88;;;5.40;;
66856;SDS011;53766;50.280;19.160;2023-04-24T02:06:36;8.10;;;5.35;;
66856;SDS011;53766;50.280;19.160;2023-04-24T02:09:03;7.65;;;5.22;;
66856;SDS011;53766;50.280;19.160;2023-04-24T02:11:31;8.63;;;5.55;;
66856;SDS011;53766;50.280;19.160;2023-04-24T02:14:00;9.85;;;5.85;;
66856;SDS011;53766;50.280;19.160;2023-04-24T02:16:28;7.20;;;5.20;;
66856;SDS011;53766;50.280;19.160;2023-04-24T02:18:59;8.30;;;5.10;;
66856;SDS011;53766;50.280;19.160;2023-04-24T02:21:26;8.00;;;5.13;;
66856;SDS011;53766;50.280;19.160;2023-04-24T02:23:54;7.18;;;4.88;;
66856;SDS011;53766;50.280;19.160;2023-04-24T02:26:22;8.27;;;5.45;;
66856;SDS011;53766;50.280;19.160;2023-04-24T02:28:49;8.77;;;5.40;;
66856;SDS011;53766;50.280;19.160;2023-04-24T02:31:16;7.75;;;5.25;;
66856;SDS011;53766;50.280;19.160;2023-04-24T02:33:44;8.65;;;4.90;;
66856;SDS011;53766;50.280;19.160;2023-04-24T02:36:11;8.32;;;5.60;;
66856;SDS011;53766;50.280;19.160;2023-04-24T02:38:40;8.15;;;4.78;;
66856;SDS011;53766;50.280;19.160;2023-04-24T02:41:07;7.65;;;5.05;;
66856;SDS011;53766;50.280;19.160;2023-04-24T02:43:34;6.65;;;5.15;;
66856;SDS011;53766;50.280;19.160;2023-04-24T02:46:02;7.88;;;5.10;;
66856;SDS011;53766;50.280;19.160;2023-04-24T02:48:29;7.40;;;5.20;;
66856;SDS011;53766;50.280;19.160;2023-04-24T02:50:58;7.32;;;5.13;;
66856;SDS011;53766;50.280;19.160;2023-04-24T02:53:25;7.47;;;5.07;;
66856;SDS011;53766;50.280;19.160;2023-04-24T02:55:53;8.40;;;5.70;;
66856;SDS011;53766;50.280;19.160;2023-04-24T02:58:20;8.43;;;5.55;;
66856;SDS011;53766;50.280;19.160;2023-04-24T03:00:48;7.90;;;5.18;;
66856;SDS011;53766;50.280;19.160;2023-04-24T03:03:15;7.82;;;5.28;;
66856;SDS011;53766;50.280;19.160;2023-04-24T03:05:43;7.97;;;4.97;;
66856;SDS011;53766;50.280;19.160;2023-04-24T03:08:10;7.63;;;5.07;;
66856;SDS011;53766;50.280;19.160;2023-04-24T03:10:38;7.78;;;5.13;;
66856;SDS011;53766;50.280;19.160;2023-04-24T03:13:05;7.63;;;4.78;;
66856;SDS011;53766;50.280;19.160;2023-04-24T03:15:33;9.00;;;5.45;;
66856;SDS011;53766;50.280;19.160;2023-04-24T03:18:00;9.73;;;4.97;;
66856;SDS011;53766;50.280;19.160;2023-04-24T03:20:29;6.78;;;4.75;;
66856;SDS011;53766;50.280;19.160;2023-04-24T03:22:56;7.93;;;5.22;;
66856;SDS011;53766;50.280;19.160;2023-04-24T03:25:24;9.10;;;5.22;;
66856;SDS011;53766;50.280;19.160;2023-04-24T03:27:51;6.80;;;4.88;;
66856;SDS011;53766;50.280;19.160;2023-04-24T03:30:19;7.38;;;4.97;;
66856;SDS011;53766;50.280;19.160;2023-04-24T03:32:46;7.47;;;5.07;;
66856;SDS011;53766;50.280;19.160;2023-04-24T03:35:14;8.10;;;4.80;;
66856;SDS011;53766;50.280;19.160;2023-04-24T03:37:41;6.95;;;4.70;;
66856;SDS011;53766;50.280;19.160;2023-04-24T03:40:09;8.00;;;5.40;;
66856;SDS011;53766;50.280;19.160;2023-04-24T03:42:36;7.40;;;5.03;;
66856;SDS011;53766;50.280;19.160;2023-04-24T03:45:06;6.40;;;4.68;;
66856;SDS011;53766;50.280;19.160;2023-04-24T03:47:34;9.43;;;4.90;;
66856;SDS011;53766;50.280;19.160;2023-04-24T03:50:02;8.70;;;5.07;;
66856;SDS011;53766;50.280;19.160;2023-04-24T03:52:29;9.60;;;5.38;;
66856;SDS011;53766;50.280;19.160;2023-04-24T03:54:56;8.40;;;5.25;;
66856;SDS011;53766;50.280;19.160;2023-04-24T03:57:24;8.13;;;5.35;;
66856;SDS011;53766;50.280;19.160;2023-04-24T03:59:52;7.53;;;5.00;;
66856;SDS011;53766;50.280;19.160;2023-04-24T04:02:20;6.85;;;4.82;;
66856;SDS011;53766;50.280;19.160;2023-04-24T04:04:48;7.00;;;5.07;;
66856;SDS011;53766;50.280;19.160;2023-04-24T04:07:16;7.55;;;5.05;;
66856;SDS011;53766;50.280;19.160;2023-04-24T04:09:44;10.23;;;5.07;;
66856;SDS011;53766;50.280;19.160;2023-04-24T04:12:11;8.40;;;5.43;;
66856;SDS011;53766;50.280;19.160;2023-04-24T04:14:39;11.02;;;4.90;;
66856;SDS011;53766;50.280;19.160;2023-04-24T04:17:07;8.25;;;5.25;;
66856;SDS011;53766;50.280;19.160;2023-04-24T04:19:34;10.63;;;5.10;;
66856;SDS011;53766;50.280;19.160;2023-04-24T04:22:02;8.45;;;4.82;;
66856;SDS011;53766;50.280;19.160;2023-04-24T04:24:29;8.32;;;5.47;;
66856;SDS011;53766;50.280;19.160;2023-04-24T04:26:56;11.77;;;5.53;;
66856;SDS011;53766;50.280;19.160;2023-04-24T04:29:25;10.15;;;5.40;;
66856;SDS011;53766;50.280;19.160;2023-04-24T04:31:53;10.07;;;5.30;;
66856;SDS011;53766;50.280;19.160;2023-04-24T04:34:20;12.90;;;5.30;;
66856;SDS011;53766;50.280;19.160;2023-04-24T04:36:48;12.27;;;4.85;;
66856;SDS011;53766;50.280;19.160;2023-04-24T04:39:15;11.48;;;5.35;;
66856;SDS011;53766;50.280;19.160;2023-04-24T04:41:43;8.95;;;5.75;;
66856;SDS011;53766;50.280;19.160;2023-04-24T04:44:13;11.43;;;5.78;;
66856;SDS011;53766;50.280;19.160;2023-04-24T04:46:41;12.30;;;6.03;;
66856;SDS011;53766;50.280;19.160;2023-04-24T04:49:08;13.35;;;5.93;;
66856;SDS011;53766;50.280;19.160;2023-04-24T04:51:37;11.48;;;6.72;;
66856;SDS011;53766;50.280;19.160;2023-04-24T04:54:07;12.05;;;6.13;;
66856;SDS011;53766;50.280;19.160;2023-04-24T04:56:34;13.63;;;5.47;;
66856;SDS011;53766;50.280;19.160;2023-04-24T04:59:01;12.27;;;6.60;;
66856;SDS011;53766;50.280;19.160;2023-04-24T05:01:29;14.80;;;6.65;;
66856;SDS011;53766;50.280;19.160;2023-04-24T05:03:56;11.48;;;5.85;;
66856;SDS011;53766;50.280;19.160;2023-04-24T05:06:24;12.30;;;6.47;;
66856;SDS011;53766;50.280;19.160;2023-04-24T05:08:52;13.07;;;6.28;;
66856;SDS011;53766;50.280;19.160;2023-04-24T05:11:24;11.75;;;5.80;;
66856;SDS011;53766;50.280;19.160;2023-04-24T05:13:51;11.98;;;6.05;;
66856;SDS011;53766;50.280;19.160;2023-04-24T05:16:18;17.27;;;6.22;;
66856;SDS011;53766;50.280;19.160;2023-04-24T05:18:46;11.40;;;5.88;;
66856;SDS011;53766;50.280;19.160;2023-04-24T05:21:13;11.82;;;5.85;;
66856;SDS011;53766;50.280;19.160;2023-04-24T05:23:41;12.13;;;5.90;;
66856;SDS011;53766;50.280;19.160;2023-04-24T05:26:08;12.40;;;6.50;;
66856;SDS011;53766;50.280;19.160;2023-04-24T05:28:36;10.82;;;6.18;;
66856;SDS011;53766;50.280;19.160;2023-04-24T05:31:04;11.48;;;6.13;;
66856;SDS011;53766;50.280;19.160;2023-04-24T05:33:31;12.80;;;6.55;;
66856;SDS011;53766;50.280;19.160;2023-04-24T05:35:59;10.32;;;5.53;;
66856;SDS011;53766;50.280;19.160;2023-04-24T05:38:26;10.88;;;6.15;;
66856;SDS011;53766;50.280;19.160;2023-04-24T05:40:54;11.75;;;6.00;;
66856;SDS011;53766;50.280;19.160;2023-04-24T05:43:21;12.77;;;5.90;;
66856;SDS011;53766;50.280;19.160;2023-04-24T05:45:49;10.38;;;6.00;;
66856;SDS011;53766;50.280;19.160;2023-04-24T05:48:16;12.60;;;6.10;;
66856;SDS011;53766;50.280;19.160;2023-04-24T05:50:43;11.38;;;5.90;;
66856;SDS011;53766;50.280;19.160;2023-04-24T05:53:11;12.02;;;6.78;;
66856;SDS011;53766;50.280;19.160;2023-04-24T05:55:38;12.45;;;6.05;;
66856;SDS011;53766;50.280;19.160;2023-04-24T05:58:06;13.02;;;6.03;;
66856;SDS011;53766;50.280;19.160;2023-04-24T06:00:34;10.80;;;5.85;;
66856;SDS011;53766;50.280;19.160;2023-04-24T06:03:02;9.38;;;5.65;;
66856;SDS011;53766;50.280;19.160;2023-04-24T06:05:31;10.18;;;6.00;;
66856;SDS011;53766;50.280;19.160;2023-04-24T06:07:58;13.27;;;6.10;;
66856;SDS011;53766;50.280;19.160;2023-04-24T06:10:26;8.45;;;5.50;;
66856;SDS011;53766;50.280;19.160;2023-04-24T06:12:54;10.60;;;5.50;;
66856;SDS011;53766;50.280;19.160;2023-04-24T06:15:28;12.18;;;6.03;;
66856;SDS011;53766;50.280;19.160;2023-04-24T06:17:57;8.82;;;5.47;;
66856;SDS011;53766;50.280;19.160;2023-04-24T06:20:25;11.50;;;5.82;;
66856;SDS011;53766;50.280;19.160;2023-04-24T06:22:52;9.25;;;5.50;;
66856;SDS011;53766;50.280;19.160;2023-04-24T06:25:20;9.95;;;5.78;;
66856;SDS011;53766;50.280;19.160;2023-04-24T06:27:48;11.43;;;5.50;;
66856;SDS011;53766;50.280;19.160;2023-04-24T06:30:15;8.15;;;5.45;;
66856;SDS011;53766;50.280;19.160;2023-04-24T06:32:43;10.57;;;5.82;;
66856;SDS011;53766;50.280;19.160;2023-04-24T06:35:10;11.05;;;5.63;;
66856;SDS011;53766;50.280;19.160;2023-04-24T06:37:39;10.55;;;5.30;;
66856;SDS011;53766;50.280;19.160;2023-04-24T06:40:08;11.02;;;5.60;;
66856;SDS011;53766;50.280;19.160;2023-04-24T06:42:36;8.77;;;5.38;;
66856;SDS011;53766;50.280;19.160;2023-04-24T06:45:04;9.43;;;5.78;;
66856;SDS011;53766;50.280;19.160;2023-04-24T06:47:32;11.23;;;5.32;;
66856;SDS011;53766;50.280;19.160;2023-04-24T06:49:59;10.52;;;5.90;;
66856;SDS011;53766;50.280;19.160;2023-04-24T06:52:27;9.30;;;5.47;;
66856;SDS011;53766;50.280;19.160;2023-04-24T06:54:59;11.88;;;5.80;;
66856;SDS011;53766;50.280;19.160;2023-04-24T06:57:28;8.70;;;5.00;;
66856;SDS011;53766;50.280;19.160;2023-04-24T06:59:56;8.13;;;5.18;;
66856;SDS011;53766;50.280;19.160;2023-04-24T07:02:24;8.25;;;5.15;;
66856;SDS011;53766;50.280;19.160;2023-04-24T07:04:52;11.02;;;5.65;;
66856;SDS011;53766;50.280;19.160;2023-04-24T07:07:20;10.15;;;5.68;;
66856;SDS011;53766;50.280;19.160;2023-04-24T07:09:50;8.63;;;5.43;;
66856;SDS011;53766;50.280;19.160;2023-04-24T07:12:18;8.95;;;5.25;;
66856;SDS011;53766;50.280;19.160;2023-04-24T07:14:47;10.13;;;5.25;;
66856;SDS011;53766;50.280;19.160;2023-04-24T07:17:15;12.00;;;5.10;;
66856;SDS011;53766;50.280;19.160;2023-04-24T07:19:42;9.40;;;5.47;;
66856;SDS011;53766;50.280;19.160;2023-04-24T07:22:10;10.65;;;5.50;;
66856;SDS011;53766;50.280;19.160;2023-04-24T07:24:43;7.80;;;5.15;;
66856;SDS011;53766;50.280;19.160;2023-04-24T07:27:12;9.90;;;5.32;;
66856;SDS011;53766;50.280;19.160;2023-04-24T07:29:42;7.70;;;5.43;;
66856;SDS011;53766;50.280;19.160;2023-04-24T07:32:10;9.60;;;5.32;;
66856;SDS011;53766;50.280;19.160;2023-04-24T07:34:38;8.85;;;5.18;;
66856;SDS011;53766;50.280;19.160;2023-04-24T07:37:05;7.95;;;5.50;;
66856;SDS011;53766;50.280;19.160;2023-04-24T07:39:32;7.95;;;4.80;;
66856;SDS011;53766;50.280;19.160;2023-04-24T07:42:00;8.75;;;4.70;;
66856;SDS011;53766;50.280;19.160;2023-04-24T07:44:29;9.82;;;5.03;;
66856;SDS011;53766;50.280;19.160;2023-04-24T07:46:56;9.05;;;5.03;;
66856;SDS011;53766;50.280;19.160;2023-04-24T07:49:24;7.38;;;5.13;;
66856;SDS011;53766;50.280;19.160;2023-04-24T07:51:51;7.93;;;4.78;;
66856;SDS011;53766;50.280;19.160;2023-04-24T07:54:18;8.02;;;4.97;;
66856;SDS011;53766;50.280;19.160;2023-04-24T07:56:46;7.85;;;4.63;;
66856;SDS011;53766;50.280;19.160;2023-04-24T07:59:13;7.53;;;4.85;;
66856;SDS011;53766;50.280;19.160;2023-04-24T08:01:41;7.90;;;4.82;;
66856;SDS011;53766;50.280;19.160;2023-04-24T08:04:08;9.50;;;4.90;;
66856;SDS011;53766;50.280;19.160;2023-04-24T08:06:36;8.60;;;4.65;;
66856;SDS011;53766;50.280;19.160;2023-04-24T08:09:03;7.15;;;4.57;;
66856;SDS011;53766;50.280;19.160;2023-04-24T08:11:31;8.60;;;5.32;;
66856;SDS011;53766;50.280;19.160;2023-04-24T08:13:59;7.18;;;4.68;;
66856;SDS011;53766;50.280;19.160;2023-04-24T08:16:27;9.48;;;4.70;;
66856;SDS011;53766;50.280;19.160;2023-04-24T08:18:54;6.43;;;4.40;;
66856;SDS011;53766;50.280;19.160;2023-04-24T08:21:22;9.10;;;4.85;;
66856;SDS011;53766;50.280;19.160;2023-04-24T08:23:50;7.22;;;4.30;;
66856;SDS011;53766;50.280;19.160;2023-04-24T08:26:17;7.78;;;4.28;;
66856;SDS011;53766;50.280;19.160;2023-04-24T08:28:44;10.45;;;4.88;;
66856;SDS011;53766;50.280;19.160;2023-04-24T08:31:12;9.70;;;4.90;;
66856;SDS011;53766;50.280;19.160;2023-04-24T08:33:39;7.30;;;4.40;;
66856;SDS011;53766;50.280;19.160;2023-04-24T08:36:08;9.25;;;4.60;;
66856;SDS011;53766;50.280;19.160;2023-04-24T08:38:35;7.97;;;4.32;;
66856;SDS011;53766;50.280;19.160;2023-04-24T08:41:02;7.40;;;4.35;;
66856;SDS011;53766;50.280;19.160;2023-04-24T08:43:31;8.15;;;4.40;;
66856;SDS011;53766;50.280;19.160;2023-04-24T08:46:01;7.03;;;4.40;;
66856;SDS011;53766;50.280;19.160;2023-04-24T08:48:37;6.88;;;4.32;;
66856;SDS011;53766;50.280;19.160;2023-04-24T08:51:06;5.68;;;3.88;;
66856;SDS011;53766;50.280;19.160;2023-04-24T08:53:35;8.55;;;4.20;;
66856;SDS011;53766;50.280;19.160;2023-04-24T08:56:03;7.32;;;4.65;;
66856;SDS011;53766;50.280;19.160;2023-04-24T08:58:31;6.07;;;4.15;;
66856;SDS011;53766;50.280;19.160;2023-04-24T09:00:59;6.25;;;4.03;;
66856;SDS011;53766;50.280;19.160;2023-04-24T09:03:27;6.65;;;4.28;;
66856;SDS011;53766;50.280;19.160;2023-04-24T09:05:56;8.60;;;4.30;;
66856;SDS011;53766;50.280;19.160;2023-04-24T09:08:25;9.43;;;3.88;;
66856;SDS011;53766;50.280;19.160;2023-04-24T09:10:53;8.27;;;4.15;;
66856;SDS011;53766;50.280;19.160;2023-04-24T09:13:21;7.80;;;4.70;;
66856;SDS011;53766;50.280;19.160;2023-04-24T09:15:49;10.02;;;4.45;;
66856;SDS011;53766;50.280;19.160;2023-04-24T09:18:16;9.38;;;4.13;;
66856;SDS011;53766;50.280;19.160;2023-04-24T09:20:57;8.07;;;4.35;;
66856;SDS011;53766;50.280;19.160;2023-04-24T09:23:30;7.38;;;4.07;;
66856;SDS011;53766;50.280;19.160;2023-04-24T09:26:00;6.97;;;4.20;;
66856;SDS011;53766;50.280;19.160;2023-04-24T09:28:32;6.80;;;3.88;;
66856;SDS011;53766;50.280;19.160;2023-04-24T09:31:13;7.03;;;4.40;;
66856;SDS011;53766;50.280;19.160;2023-04-24T09:33:53;6.85;;;3.58;;
66856;SDS011;53766;50.280;19.160;2023-04-24T09:39:01;6.22;;;3.85;;
66856;SDS011;53766;50.280;19.160;2023-04-24T09:41:31;5.57;;;3.83;;
66856;SDS011;53766;50.280;19.160;2023-04-24T09:44:12;4.97;;;3.65;;
66856;SDS011;53766;50.280;19.160;2023-04-24T09:46:42;5.35;;;3.75;;
66856;SDS011;53766;50.280;19.160;2023-04-24T09:49:12;5.95;;;3.90;;
66856;SDS011;53766;50.280;19.160;2023-04-24T09:51:42;4.75;;;3.45;;
66856;SDS011;53766;50.280;19.160;2023-04-24T09:54:13;9.48;;;4.45;;
66856;SDS011;53766;50.280;19.160;2023-04-24T09:56:46;6.57;;;4.00;;
66856;SDS011;53766;50.280;19.160;2023-04-24T09:59:15;5.45;;;3.55;;
66856;SDS011;53766;50.280;19.160;2023-04-24T10:01:43;7.40;;;4.00;;
66856;SDS011;53766;50.280;19.160;2023-04-24T10:04:25;6.40;;;3.72;;
66856;SDS011;53766;50.280;19.160;2023-04-24T10:06:54;6.25;;;4.00;;
66856;SDS011;53766;50.280;19.160;2023-04-24T10:09:24;4.85;;;3.60;;
66856;SDS011;53766;50.280;19.160;2023-04-24T10:11:54;8.02;;;4.28;;
66856;SDS011;53766;50.280;19.160;2023-04-24T10:14:22;7.13;;;4.07;;
66856;SDS011;53766;50.280;19.160;2023-04-24T10:16:54;6.35;;;3.80;;
66856;SDS011;53766;50.280;19.160;2023-04-24T10:19:25;7.13;;;3.60;;
66856;SDS011;53766;50.280;19.160;2023-04-24T10:21:53;6.43;;;3.80;;
66856;SDS011;53766;50.280;19.160;2023-04-24T10:24:22;6.15;;;4.13;;
66856;SDS011;53766;50.280;19.160;2023-04-24T10:26:50;5.55;;;3.85;;
66856;SDS011;53766;50.280;19.160;2023-04-24T10:29:18;5.82;;;3.90;;
66856;SDS011;53766;50.280;19.160;2023-04-24T10:31:46;5.50;;;3.80;;
66856;SDS011;53766;50.280;19.160;2023-04-24T10:34:15;4.90;;;3.42;;
66856;SDS011;53766;50.280;19.160;2023-04-24T10:36:48;5.30;;;3.67;;
66856;SDS011;53766;50.280;19.160;2023-04-24T10:39:19;5.40;;;3.60;;
66856;SDS011;53766;50.280;19.160;2023-04-24T10:44:24;6.32;;;3.78;;
66856;SDS011;53766;50.280;19.160;2023-04-24T10:46:55;7.28;;;3.85;;
66856;SDS011;53766;50.280;19.160;2023-04-24T10:49:29;4.80;;;3.67;;
66856;SDS011;53766;50.280;19.160;2023-04-24T10:52:02;4.60;;;3.42;;
66856;SDS011;53766;50.280;19.160;2023-04-24T10:54:36;7.47;;;3.67;;
66856;SDS011;53766;50.280;19.160;2023-04-24T11:00:12;4.38;;;3.53;;
66856;SDS011;53766;50.280;19.160;2023-04-24T11:02:47;5.75;;;3.50;;
66856;SDS011;53766;50.280;19.160;2023-04-24T11:05:18;5.65;;;3.33;;
66856;SDS011;53766;50.280;19.160;2023-04-24T11:10:44;5.45;;;3.80;;
66856;SDS011;53766;50.280;19.160;2023-04-24T11:13:16;4.53;;;2.85;;
66856;SDS011;53766;50.280;19.160;2023-04-24T11:15:44;5.07;;;3.60;;
66856;SDS011;53766;50.280;19.160;2023-04-24T11:18:15;5.78;;;3.55;;
66856;SDS011;53766;50.280;19.160;2023-04-24T11:20:43;5.75;;;3.35;;
66856;SDS011;53766;50.280;19.160;2023-04-24T11:23:12;4.45;;;3.33;;
66856;SDS011;53766;50.280;19.160;2023-04-24T11:25:41;4.40;;;3.08;;
66856;SDS011;53766;50.280;19.160;2023-04-24T11:28:08;5.47;;;3.15;;
66856;SDS011;53766;50.280;19.160;2023-04-24T11:30:43;5.28;;;3.63;;
66856;SDS011;53766;50.280;19.160;2023-04-24T11:33:10;5.70;;;3.50;;
66856;SDS011;53766;50.280;19.160;2023-04-24T11:35:39;5.15;;;3.40;;
66856;SDS011;53766;50.280;19.160;2023-04-24T11:38:07;4.75;;;3.33;;
66856;SDS011;53766;50.280;19.160;2023-04-24T11:40:40;6.55;;;3.60;;
66856;SDS011;53766;50.280;19.160;2023-04-24T11:43:09;6.18;;;3.47;;
66856;SDS011;53766;50.280;19.160;2023-04-24T11:45:37;8.15;;;3.75;;
66856;SDS011;53766;50.280;19.160;2023-04-24T11:48:04;6.20;;;3.17;;
66856;SDS011;53766;50.280;19.160;2023-04-24T11:50:32;5.60;;;3.78;;
66856;SDS011;53766;50.280;19.160;2023-04-24T11:53:00;5.03;;;3.28;;
66856;SDS011;53766;50.280;19.160;2023-04-24T11:55:28;5.65;;;3.47;;
66856;SDS011;53766;50.280;19.160;2023-04-24T11:57:57;5.93;;;3.65;;
66856;SDS011;53766;50.280;19.160;2023-04-24T12:00:26;6.32;;;3.75;;
66856;SDS011;53766;50.280;19.160;2023-04-24T12:03:09;5.15;;;3.17;;
66856;SDS011;53766;50.280;19.160;2023-04-24T12:05:38;6.13;;;3.20;;
66856;SDS011;53766;50.280;19.160;2023-04-24T12:08:07;6.78;;;3.38;;
66856;SDS011;53766;50.280;19.160;2023-04-24T12:10:34;4.80;;;3.40;;
66856;SDS011;53766;50.280;19.160;2023-04-24T12:13:03;5.68;;;3.20;;
66856;SDS011;53766;50.280;19.160;2023-04-24T12:15:30;4.50;;;3.38;;
66856;SDS011;53766;50.280;19.160;2023-04-24T12:17:58;4.43;;;3.28;;
66856;SDS011;53766;50.280;19.160;2023-04-24T12:20:29;7.00;;;3.53;;
66856;SDS011;53766;50.280;19.160;2023-04-24T12:23:00;5.18;;;3.40;;
66856;SDS011;53766;50.280;19.160;2023-04-24T12:25:28;4.28;;;3.30;;
66856;SDS011;53766;50.280;19.160;2023-04-24T12:30:32;6.30;;;3.53;;
66856;SDS011;53766;50.280;19.160;2023-04-24T12:33:01;7.47;;;3.50;;
66856;SDS011;53766;50.280;19.160;2023-04-24T12:35:31;4.85;;;3.28;;
66856;SDS011;53766;50.280;19.160;2023-04-24T12:38:13;7.47;;;3.70;;
66856;SDS011;53766;50.280;19.160;2023-04-24T12:40:42;5.68;;;3.60;;
66856;SDS011;53766;50.280;19.160;2023-04-24T12:43:14;5.10;;;3.40;;
66856;SDS011;53766;50.280;19.160;2023-04-24T12:45:45;8.50;;;4.13;;
66856;SDS011;53766;50.280;19.160;2023-04-24T12:48:14;6.28;;;3.35;;
66856;SDS011;53766;50.280;19.160;2023-04-24T12:50:42;6.97;;;3.70;;
66856;SDS011;53766;50.280;19.160;2023-04-24T12:53:13;5.82;;;3.60;;
66856;SDS011;53766;50.280;19.160;2023-04-24T12:55:41;7.07;;;4.05;;
66856;SDS011;53766;50.280;19.160;2023-04-24T12:58:09;6.32;;;3.92;;
66856;SDS011;53766;50.280;19.160;2023-04-24T13:00:37;4.75;;;3.30;;
66856;SDS011;53766;50.280;19.160;2023-04-24T13:03:05;5.75;;;3.80;;
66856;SDS011;53766;50.280;19.160;2023-04-24T13:05:33;5.30;;;3.80;;
66856;SDS011;53766;50.280;19.160;2023-04-24T13:08:00;5.30;;;3.58;;
66856;SDS011;53766;50.280;19.160;2023-04-24T13:10:28;6.35;;;3.20;;
66856;SDS011;53766;50.280;19.160;2023-04-24T13:12:56;5.20;;;3.58;;
66856;SDS011;53766;50.280;19.160;2023-04-24T13:15:24;5.38;;;3.55;;
66856;SDS011;53766;50.280;19.160;2023-04-24T13:17:51;6.22;;;3.80;;
66856;SDS011;53766;50.280;19.160;2023-04-24T13:20:19;5.53;;;3.53;;
66856;SDS011;53766;50.280;19.160;2023-04-24T13:22:47;5.68;;;3.63;;
66856;SDS011;53766;50.280;19.160;2023-04-24T13:25:14;6.18;;;3.60;;
66856;SDS011;53766;50.280;19.160;2023-04-24T13:27:44;7.50;;;3.78;;
66856;SDS011;53766;50.280;19.160;2023-04-24T13:30:11;5.30;;;3.65;;
66856;SDS011;53766;50.280;19.160;2023-04-24T13:32:39;5.28;;;3.33;;
66856;SDS011;53766;50.280;19.160;2023-04-24T13:35:07;5.75;;;3.30;;
66856;SDS011;53766;50.280;19.160;2023-04-24T13:37:35;5.40;;;3.40;;
66856;SDS011;53766;50.280;19.160;2023-04-24T13:40:02;6.20;;;3.70;;
66856;SDS011;53766;50.280;19.160;2023-04-24T13:42:33;6.22;;;3.95;;
66856;SDS011;53766;50.280;19.160;2023-04-24T13:45:00;6.53;;;3.28;;
66856;SDS011;53766;50.280;19.160;2023-04-24T13:47:37;5.80;;;3.17;;
66856;SDS011;53766;50.280;19.160;2023-04-24T13:50:04;5.13;;;3.30;;
66856;SDS011;53766;50.280;19.160;2023-04-24T13:52:32;5.22;;;3.40;;
66856;SDS011;53766;50.280;19.160;2023-04-24T13:55:00;4.95;;;3.40;;
66856;SDS011;53766;50.280;19.160;2023-04-24T13:57:27;6.30;;;3.70;;
66856;SDS011;53766;50.280;19.160;2023-04-24T13:59:55;5.30;;;3.40;;
66856;SDS011;53766;50.280;19.160;2023-04-24T14:02:28;5.65;;;3.78;;
66856;SDS011;53766;50.280;19.160;2023-04-24T14:04:55;7.50;;;3.50;;
66856;SDS011;53766;50.280;19.160;2023-04-24T14:07:23;5.07;;;3.40;;
66856;SDS011;53766;50.280;19.160;2023-04-24T14:09:50;4.40;;;3.33;;
66856;SDS011;53766;50.280;19.160;2023-04-24T14:12:18;6.63;;;3.80;;
66856;SDS011;53766;50.280;19.160;2023-04-24T14:14:46;4.93;;;3.03;;
66856;SDS011;53766;50.280;19.160;2023-04-24T14:17:15;6.45;;;3.22;;
66856;SDS011;53766;50.280;19.160;2023-04-24T14:19:42;4.97;;;3.30;;
66856;SDS011;53766;50.280;19.160;2023-04-24T14:22:10;4.10;;;3.25;;
66856;SDS011;53766;50.280;19.160;2023-04-24T14:24:37;6.38;;;3.22;;
66856;SDS011;53766;50.280;19.160;2023-04-24T14:27:05;4.15;;;3.03;;
66856;SDS011;53766;50.280;19.160;2023-04-24T14:29:32;4.60;;;3.28;;
66856;SDS011;53766;50.280;19.160;2023-04-24T14:32:01;5.22;;;3.40;;
66856;SDS011;53766;50.280;19.160;2023-04-24T14:34:28;5.35;;;3.65;;
66856;SDS011;53766;50.280;19.160;2023-04-24T14:36:56;4.70;;;3.20;;
66856;SDS011;53766;50.280;19.160;2023-04-24T14:39:23;5.82;;;3.42;;
66856;SDS011;53766;50.280;19.160;2023-04-24T14:41:51;4.97;;;3.08;;
66856;SDS011;53766;50.280;19.160;2023-04-24T14:44:18;4.47;;;2.95;;
66856;SDS011;53766;50.280;19.160;2023-04-24T14:46:46;3.72;;;3.00;;
66856;SDS011;53766;50.280;19.160;2023-04-24T14:49:13;5.20;;;3.13;;
66856;SDS011;53766;50.280;19.160;2023-04-24T14:51:41;4.68;;;3.35;;
66856;SDS011;53766;50.280;19.160;2023-04-24T14:54:09;5.75;;;3.03;;